createdAt,value
2022-12-31T00:01:44.823Z,0.10
2022-12-31T00:04:13.670Z,8.60
2022-12-31T00:06:43.747Z,8.60
2022-12-31T00:11:44.105Z,8.60
2022-12-31T00:14:14.287Z,0.10
2022-12-31T00:16:43.703Z,0.10
2022-12-31T00:19:13.951Z,0.10
2022-12-31T00:21:44.030Z,0.10
2022-12-31T00:24:13.867Z,10.30
2022-12-31T00:26:43.885Z,10.30
2022-12-31T00:29:13.655Z,10.30
2022-12-31T00:31:43.698Z,10.30
2022-12-31T00:34:13.839Z,0.10
2022-12-31T00:36:45.816Z,0.10
2022-12-31T00:39:13.877Z,0.10
2022-12-31T00:41:43.841Z,0.10
2022-12-31T00:44:14.029Z,0.10
2022-12-31T00:49:14.280Z,0.10
2022-12-31T00:51:45.581Z,0.10
2022-12-31T00:54:14.046Z,0.10
2022-12-31T00:56:43.963Z,0.10
2022-12-31T00:59:13.665Z,0.10
2022-12-31T01:01:43.892Z,0.10
2022-12-31T01:06:44.904Z,0.80
2022-12-31T01:09:15.792Z,0.80
2022-12-31T01:11:44.164Z,0.80
2022-12-31T01:14:17.081Z,1.70
2022-12-31T01:16:46.611Z,1.70
2022-12-31T01:19:16.080Z,1.70
2022-12-31T01:21:44.874Z,1.70
2022-12-31T01:24:14.251Z,0.20
2022-12-31T01:26:44.385Z,0.20
2022-12-31T01:29:15.890Z,0.20
2022-12-31T01:34:13.949Z,0.10
2022-12-31T01:36:43.928Z,0.10
2022-12-31T01:39:13.728Z,0.10
2022-12-31T01:41:45.977Z,0.10
2022-12-31T01:44:33.755Z,0.10
2022-12-31T01:46:46.765Z,0.10
2022-12-31T01:49:19.466Z,0.10
2022-12-31T01:51:48.554Z,0.10
2022-12-31T01:54:17.339Z,0.30
2022-12-31T01:56:46.373Z,0.30
2022-12-31T01:59:16.677Z,0.30
2022-12-31T02:01:47.149Z,0.30
2022-12-31T02:04:15.407Z,0.30
2022-12-31T02:06:49.823Z,0.30
2022-12-31T02:09:15.055Z,0.30
2022-12-31T02:11:43.764Z,0.30
2022-12-31T02:14:16.394Z,0.50
2022-12-31T02:16:54.412Z,0.50
2022-12-31T02:19:33.769Z,0.50
2022-12-31T02:21:54.808Z,0.50
2022-12-31T02:24:31.382Z,0.20
2022-12-31T02:26:55.034Z,0.20
2022-12-31T02:29:33.477Z,0.20
2022-12-31T02:34:19.826Z,0.40
2022-12-31T02:36:47.075Z,0.40
2022-12-31T02:41:50.339Z,0.40
2022-12-31T02:44:23.357Z,0.20
2022-12-31T02:46:51.462Z,0.20
2022-12-31T02:51:53.497Z,0.20
2022-12-31T02:54:26.258Z,0.30
2022-12-31T02:56:52.889Z,0.30
2022-12-31T02:59:31.874Z,0.30
2022-12-31T03:01:59.904Z,0.30
2022-12-31T03:06:44.806Z,0.10
2022-12-31T03:09:13.740Z,0.10
2022-12-31T03:11:53.677Z,0.10
2022-12-31T03:16:43.723Z,0.20
2022-12-31T03:19:23.665Z,0.20
2022-12-31T03:21:53.583Z,0.20
2022-12-31T03:24:23.614Z,0.50
2022-12-31T03:26:43.714Z,0.50
2022-12-31T03:29:13.826Z,0.50
2022-12-31T03:31:43.760Z,0.50
2022-12-31T03:34:14.819Z,0.10
2022-12-31T03:36:43.742Z,0.10
2022-12-31T03:39:13.732Z,0.10
2022-12-31T03:44:13.783Z,0.20
2022-12-31T03:46:43.764Z,0.20
2022-12-31T03:49:14.042Z,0.20
2022-12-31T03:51:43.896Z,0.20
2022-12-31T03:54:13.751Z,0.10
2022-12-31T03:56:44.070Z,0.10
2022-12-31T03:59:13.824Z,0.10
2022-12-31T04:01:44.005Z,0.10
2022-12-31T04:04:13.919Z,0.10
2022-12-31T04:09:13.846Z,0.10
2022-12-31T04:11:43.765Z,0.10
2022-12-31T04:14:16.139Z,0.20
2022-12-31T04:16:44.280Z,0.20
2022-12-31T04:19:13.741Z,0.20
2022-12-31T04:24:14.378Z,0.30
2022-12-31T04:26:43.862Z,0.30
2022-12-31T04:29:13.801Z,0.30
2022-12-31T04:34:14.061Z,0.10
2022-12-31T04:36:43.787Z,0.10
2022-12-31T04:39:14.729Z,0.10
2022-12-31T04:41:43.784Z,0.10
2022-12-31T04:44:14.265Z,0.10
2022-12-31T04:46:43.937Z,0.10
2022-12-31T04:49:13.946Z,0.10
2022-12-31T04:51:44.116Z,0.10
2022-12-31T04:56:43.860Z,0.10
2022-12-31T04:59:13.862Z,0.10
2022-12-31T05:01:44.064Z,0.10
2022-12-31T05:04:13.989Z,0.10
2022-12-31T05:09:14.051Z,0.10
2022-12-31T05:11:43.807Z,0.10
2022-12-31T05:14:13.946Z,0.10
2022-12-31T05:16:44.022Z,0.10
2022-12-31T05:19:13.776Z,0.10
2022-12-31T05:21:53.737Z,0.10
2022-12-31T05:24:13.804Z,0.10
2022-12-31T05:26:43.759Z,0.10
2022-12-31T05:29:14.176Z,0.10
2022-12-31T05:31:43.742Z,0.10
2022-12-31T05:34:13.793Z,0.10
2022-12-31T05:36:45.030Z,0.10
2022-12-31T05:39:13.887Z,0.10
2022-12-31T05:41:44.133Z,0.10
2022-12-31T05:44:14.014Z,1.70
2022-12-31T05:46:43.841Z,1.70
2022-12-31T05:49:14.146Z,1.70
2022-12-31T05:51:43.784Z,1.70
2022-12-31T05:54:14.246Z,0.20
2022-12-31T05:56:43.833Z,0.20
2022-12-31T05:59:13.805Z,0.20
2022-12-31T06:01:43.884Z,0.20
2022-12-31T06:04:13.786Z,0.10
2022-12-31T06:06:44.269Z,0.10
2022-12-31T06:09:14.253Z,0.10
2022-12-31T06:11:44.595Z,0.10
2022-12-31T06:14:14.266Z,0.50
2022-12-31T06:16:43.788Z,0.50
2022-12-31T06:19:14.413Z,0.50
2022-12-31T06:21:43.822Z,0.50
2022-12-31T06:24:13.953Z,0.50
2022-12-31T06:26:43.842Z,0.50
2022-12-31T06:29:13.920Z,0.50
2022-12-31T06:31:44.010Z,0.50
2022-12-31T06:34:14.558Z,0.40
2022-12-31T06:36:43.782Z,0.40
2022-12-31T06:39:14.269Z,0.40
2022-12-31T06:41:43.780Z,0.40
2022-12-31T06:44:14.499Z,0.50
2022-12-31T06:46:43.839Z,0.50
2022-12-31T06:49:13.982Z,0.50
2022-12-31T06:51:45.144Z,0.50
2022-12-31T06:54:13.865Z,0.10
2022-12-31T06:56:44.602Z,0.10
2022-12-31T06:59:23.651Z,0.10
2022-12-31T07:01:50.369Z,0.10
2022-12-31T07:04:33.635Z,0.20
2022-12-31T07:06:50.920Z,0.20
2022-12-31T07:09:21.427Z,0.20
2022-12-31T07:11:56.383Z,0.20
2022-12-31T07:14:28.755Z,0.50
2022-12-31T07:16:52.457Z,0.50
2022-12-31T07:19:26.461Z,0.50
2022-12-31T07:24:15.204Z,0.10
2022-12-31T07:26:56.959Z,0.10
2022-12-31T07:31:54.442Z,0.10
2022-12-31T07:34:21.730Z,0.20
2022-12-31T07:36:55.082Z,0.20
2022-12-31T07:41:53.787Z,0.20
2022-12-31T07:44:28.696Z,0.10
2022-12-31T07:46:53.410Z,0.10
2022-12-31T07:49:15.042Z,0.10
2022-12-31T07:51:44.194Z,0.10
2022-12-31T07:54:14.548Z,0.70
2022-12-31T07:56:44.941Z,0.70
2022-12-31T07:59:30.827Z,0.70
2022-12-31T08:01:49.151Z,0.70
2022-12-31T08:04:26.100Z,7.30
2022-12-31T08:06:52.924Z,7.30
2022-12-31T08:09:29.194Z,7.30
2022-12-31T08:11:51.252Z,7.30
2022-12-31T08:14:14.598Z,0.90
2022-12-31T08:16:44.597Z,0.90
2022-12-31T08:19:24.368Z,0.90
2022-12-31T08:21:55.005Z,0.90
2022-12-31T08:24:22.285Z,0.40
2022-12-31T08:26:56.344Z,0.40
2022-12-31T08:29:29.644Z,0.40
2022-12-31T08:31:52.498Z,0.40
2022-12-31T08:34:22.154Z,0.50
2022-12-31T08:36:51.296Z,0.50
2022-12-31T08:39:24.232Z,0.50
2022-12-31T08:41:46.761Z,0.50
2022-12-31T08:44:25.978Z,0.30
2022-12-31T08:46:53.452Z,0.30
2022-12-31T08:49:14.192Z,0.30
2022-12-31T08:51:44.902Z,0.30
2022-12-31T08:54:14.070Z,0.90
2022-12-31T08:56:56.439Z,0.90
2022-12-31T08:59:28.499Z,0.90
2022-12-31T09:01:59.904Z,0.90
2022-12-31T09:04:24.738Z,0.30
2022-12-31T09:06:54.578Z,0.30
2022-12-31T09:09:27.010Z,0.30
2022-12-31T09:11:53.637Z,0.30
2022-12-31T09:14:29.887Z,0.10
2022-12-31T09:16:52.473Z,0.10
2022-12-31T09:19:13.970Z,0.10
2022-12-31T09:21:44.422Z,0.10
2022-12-31T09:24:15.256Z,0.30
2022-12-31T09:29:26.060Z,0.30
2022-12-31T09:34:22.847Z,0.50
2022-12-31T09:36:49.723Z,0.50
2022-12-31T09:39:21.309Z,0.50
2022-12-31T09:42:03.823Z,0.50
2022-12-31T09:44:33.645Z,0.60
2022-12-31T09:47:03.701Z,0.60
2022-12-31T09:49:33.828Z,0.60
2022-12-31T09:51:56.716Z,0.60
2022-12-31T09:54:28.186Z,5.10
2022-12-31T09:56:55.501Z,5.10
2022-12-31T09:59:22.519Z,5.10
2022-12-31T10:01:52.993Z,5.10
2022-12-31T10:04:33.905Z,5.40
2022-12-31T10:06:58.569Z,5.40
2022-12-31T10:09:31.950Z,5.40
2022-12-31T10:12:01.857Z,5.40
2022-12-31T10:14:29.727Z,1.00
2022-12-31T10:16:58.194Z,1.00
2022-12-31T10:19:32.344Z,1.00
2022-12-31T10:21:58.049Z,1.00
2022-12-31T10:24:33.135Z,2.70
2022-12-31T10:29:24.837Z,2.70
2022-12-31T10:31:55.800Z,2.70
2022-12-31T10:34:16.293Z,0.30
2022-12-31T10:36:52.908Z,0.30
2022-12-31T10:39:27.255Z,0.30
2022-12-31T10:42:01.272Z,0.30
2022-12-31T10:44:33.690Z,1.00
2022-12-31T10:49:33.744Z,1.00
2022-12-31T10:52:03.667Z,1.00
2022-12-31T10:54:33.666Z,3.30
2022-12-31T10:57:06.417Z,3.30
2022-12-31T10:59:33.709Z,3.30
2022-12-31T11:01:48.727Z,3.30
2022-12-31T11:04:33.956Z,3.70
2022-12-31T11:07:03.695Z,3.70
2022-12-31T11:09:34.814Z,3.70
2022-12-31T11:11:53.123Z,3.70
2022-12-31T11:14:33.699Z,1.20
2022-12-31T11:16:56.447Z,1.20
2022-12-31T11:21:56.669Z,1.20
2022-12-31T11:24:28.556Z,1.20
2022-12-31T11:27:03.243Z,1.20
2022-12-31T11:29:29.017Z,1.20
2022-12-31T11:32:00.102Z,1.20
2022-12-31T11:34:33.820Z,0.80
2022-12-31T11:36:57.858Z,0.80
2022-12-31T11:39:31.955Z,0.80
2022-12-31T11:41:51.325Z,0.80
2022-12-31T11:44:22.880Z,0.60
2022-12-31T11:46:57.720Z,0.60
2022-12-31T11:49:29.960Z,0.60
2022-12-31T11:52:01.381Z,0.60
2022-12-31T11:54:33.293Z,6.70
2022-12-31T11:56:50.229Z,6.70
2022-12-31T11:59:18.907Z,6.70
2022-12-31T12:01:52.780Z,6.70
2022-12-31T12:04:14.070Z,1.30
2022-12-31T12:06:45.349Z,1.30
2022-12-31T12:09:25.716Z,1.30
2022-12-31T12:11:43.959Z,1.30
2022-12-31T12:14:20.323Z,0.40
2022-12-31T12:16:44.115Z,0.40
2022-12-31T12:21:46.075Z,0.40
2022-12-31T12:24:20.320Z,0.50
2022-12-31T12:26:44.510Z,0.50
2022-12-31T12:29:18.165Z,0.50
2022-12-31T12:31:54.482Z,0.50
2022-12-31T12:34:23.447Z,0.30
2022-12-31T12:36:46.106Z,0.30
2022-12-31T12:39:19.747Z,0.30
2022-12-31T12:41:44.197Z,0.30
2022-12-31T12:44:16.025Z,0.20
2022-12-31T12:46:48.468Z,0.20
2022-12-31T12:52:02.416Z,0.20
2022-12-31T12:54:27.770Z,1.90
2022-12-31T12:56:51.584Z,1.90
2022-12-31T12:59:33.789Z,1.90
2022-12-31T13:01:49.203Z,1.90
2022-12-31T13:04:34.001Z,0.30
2022-12-31T13:06:58.076Z,0.30
2022-12-31T13:09:27.834Z,0.30
2022-12-31T13:11:58.980Z,0.30
2022-12-31T13:14:27.309Z,1.10
2022-12-31T13:16:53.671Z,1.10
2022-12-31T13:19:21.661Z,1.10
2022-12-31T13:21:53.466Z,1.10
2022-12-31T13:24:24.620Z,3.70
2022-12-31T13:26:48.188Z,3.70
2022-12-31T13:29:20.137Z,3.70
2022-12-31T13:31:46.449Z,3.70
2022-12-31T13:34:20.049Z,1.40
2022-12-31T13:36:47.855Z,1.40
2022-12-31T13:39:19.579Z,1.40
2022-12-31T13:41:49.250Z,1.40
2022-12-31T13:44:22.824Z,2.60
2022-12-31T13:46:47.986Z,2.60
2022-12-31T13:49:18.515Z,2.60
2022-12-31T13:51:46.957Z,2.60
2022-12-31T13:54:28.221Z,1.50
2022-12-31T13:56:45.326Z,1.50
2022-12-31T13:59:18.151Z,1.50
2022-12-31T14:01:51.906Z,1.50
2022-12-31T14:04:17.589Z,1.10
2022-12-31T14:06:50.914Z,1.10
2022-12-31T14:09:21.778Z,1.10
2022-12-31T14:11:58.713Z,1.10
2022-12-31T14:14:24.953Z,0.60
2022-12-31T14:16:52.458Z,0.60
2022-12-31T14:19:31.142Z,0.60
2022-12-31T14:21:51.658Z,0.60
2022-12-31T14:24:26.539Z,0.50
2022-12-31T14:26:48.262Z,0.50
2022-12-31T14:29:29.562Z,0.50
2022-12-31T14:32:00.488Z,0.50
2022-12-31T14:34:24.764Z,0.40
2022-12-31T14:36:56.169Z,0.40
2022-12-31T14:39:27.965Z,0.40
2022-12-31T14:44:31.169Z,0.40
2022-12-31T14:46:58.011Z,0.40
2022-12-31T14:49:29.510Z,0.40
2022-12-31T14:51:44.265Z,0.40
2022-12-31T14:54:28.958Z,1.10
2022-12-31T14:56:45.080Z,1.10
2022-12-31T14:59:25.221Z,1.10
2022-12-31T15:01:44.885Z,1.10
2022-12-31T15:04:14.339Z,0.90
2022-12-31T15:06:55.584Z,0.90
2022-12-31T15:12:03.866Z,0.90
2022-12-31T15:14:37.172Z,0.40
2022-12-31T15:16:53.936Z,0.40
2022-12-31T15:19:34.083Z,0.40
2022-12-31T15:21:56.219Z,0.40
2022-12-31T15:24:19.228Z,0.50
2022-12-31T15:26:49.142Z,0.50
2022-12-31T15:29:25.127Z,0.50
2022-12-31T15:31:46.106Z,0.50
2022-12-31T15:34:25.119Z,0.90
2022-12-31T15:36:52.138Z,0.90
2022-12-31T15:39:24.992Z,0.90
2022-12-31T15:42:18.583Z,0.90
2022-12-31T15:44:22.670Z,0.30
2022-12-31T15:46:46.599Z,0.30
2022-12-31T15:49:17.263Z,0.30
2022-12-31T15:51:48.440Z,0.30
2022-12-31T15:54:24.052Z,0.60
2022-12-31T15:56:47.561Z,0.60
2022-12-31T15:59:16.840Z,0.60
2022-12-31T16:01:45.717Z,0.60
2022-12-31T16:04:17.773Z,0.60
2022-12-31T16:06:50.661Z,0.60
2022-12-31T16:11:44.258Z,0.60
2022-12-31T16:14:19.199Z,1.10
2022-12-31T16:16:52.507Z,1.10
2022-12-31T16:19:27.277Z,1.10
2022-12-31T16:24:26.617Z,0.10
2022-12-31T16:26:48.517Z,0.10
2022-12-31T16:29:16.695Z,0.10
2022-12-31T16:31:45.543Z,0.10
2022-12-31T16:34:16.580Z,5.50
2022-12-31T16:36:54.592Z,5.50
2022-12-31T16:39:23.466Z,5.50
2022-12-31T16:41:44.023Z,5.50
2022-12-31T16:46:44.363Z,2.50
2022-12-31T16:49:19.194Z,2.50
2022-12-31T16:51:44.498Z,2.50
2022-12-31T16:54:18.862Z,5.00
2022-12-31T16:56:44.643Z,5.00
2022-12-31T16:59:23.344Z,5.00
2022-12-31T17:01:44.396Z,5.00
2022-12-31T17:09:20.054Z,5.10
2022-12-31T17:11:52.291Z,5.10
2022-12-31T17:14:15.933Z,6.40
2022-12-31T17:17:01.406Z,6.40
2022-12-31T17:19:31.777Z,6.40
2022-12-31T17:21:47.593Z,6.40
2022-12-31T17:24:14.341Z,0.90
2022-12-31T17:26:44.222Z,0.90
2022-12-31T17:34:21.390Z,1.70
2022-12-31T17:36:55.086Z,1.70
2022-12-31T17:39:16.508Z,1.70
2022-12-31T17:44:17.527Z,1.00
2022-12-31T17:49:14.356Z,1.00
2022-12-31T17:51:47.579Z,1.00
2022-12-31T17:54:15.270Z,3.00
2022-12-31T17:56:44.467Z,3.00
2022-12-31T17:59:17.275Z,3.00
2022-12-31T18:01:44.421Z,3.00
2022-12-31T18:04:16.359Z,1.60
2022-12-31T18:09:15.352Z,1.60
2022-12-31T18:11:45.162Z,1.60
2022-12-31T18:14:15.265Z,2.20
2022-12-31T18:19:37.938Z,2.20
2022-12-31T18:21:44.119Z,2.20
2022-12-31T18:24:22.868Z,0.90
2022-12-31T18:29:16.874Z,0.90
2022-12-31T18:31:47.198Z,0.90
2022-12-31T18:34:16.127Z,6.60
2022-12-31T18:36:44.948Z,6.60
2022-12-31T18:39:14.129Z,6.60
2022-12-31T18:44:15.590Z,3.10
2022-12-31T18:46:44.317Z,3.10
2022-12-31T18:49:14.328Z,3.10
2022-12-31T18:51:44.197Z,3.10
2022-12-31T18:54:14.688Z,1.30
2022-12-31T18:56:48.335Z,1.30
2022-12-31T18:59:14.198Z,1.30
2022-12-31T19:01:44.456Z,1.30
2022-12-31T19:04:22.846Z,0.50
2022-12-31T19:06:44.785Z,0.50
2022-12-31T19:09:43.573Z,0.50
2022-12-31T19:11:45.065Z,0.50
2022-12-31T19:14:14.928Z,0.40
2022-12-31T19:16:44.492Z,0.40
2022-12-31T19:19:14.801Z,0.40
2022-12-31T19:21:44.817Z,0.40
2022-12-31T19:24:21.302Z,0.40
2022-12-31T19:26:44.076Z,0.40
2022-12-31T19:31:44.791Z,0.40
2022-12-31T19:34:14.347Z,1.60
2022-12-31T19:36:44.493Z,1.60
2022-12-31T19:39:17.027Z,1.60
2022-12-31T19:41:44.529Z,1.60
2022-12-31T19:44:15.681Z,3.30
2022-12-31T19:46:45.436Z,3.30
2022-12-31T19:51:44.089Z,3.30
2022-12-31T19:54:14.166Z,2.00
2022-12-31T19:56:44.117Z,2.00
2022-12-31T19:59:14.405Z,2.00
2022-12-31T20:01:44.201Z,2.00
2022-12-31T20:04:14.165Z,0.90
2022-12-31T20:06:44.687Z,0.90
2022-12-31T20:09:14.233Z,0.90
2022-12-31T20:11:44.583Z,0.90
2022-12-31T20:14:14.341Z,0.50
2022-12-31T20:16:44.169Z,0.50
2022-12-31T20:19:14.110Z,0.50
2022-12-31T20:21:44.263Z,0.50
2022-12-31T20:24:14.428Z,0.80
2022-12-31T20:26:44.092Z,0.80
2022-12-31T20:29:14.360Z,0.80
2022-12-31T20:31:44.138Z,0.80
2022-12-31T20:34:14.241Z,0.20
2022-12-31T20:36:44.326Z,0.20
2022-12-31T20:39:14.127Z,0.20
2022-12-31T20:41:44.517Z,0.20
2022-12-31T20:46:44.211Z,0.50
2022-12-31T20:51:50.331Z,0.50
2022-12-31T20:54:14.199Z,1.50
2022-12-31T20:59:14.139Z,1.50
2022-12-31T21:04:14.927Z,2.70
2022-12-31T21:06:44.222Z,2.70
2022-12-31T21:09:14.149Z,2.70
2022-12-31T21:14:14.459Z,0.60
2022-12-31T21:19:14.367Z,0.60
2022-12-31T21:21:44.278Z,0.60
2022-12-31T21:26:44.165Z,0.80
2022-12-31T21:29:14.271Z,0.80
2022-12-31T21:31:44.319Z,0.80
2022-12-31T21:36:44.169Z,2.40
2022-12-31T21:39:14.684Z,2.40
2022-12-31T21:41:51.622Z,2.40
2022-12-31T21:47:15.925Z,1.10
2022-12-31T21:49:14.551Z,1.10
2022-12-31T21:51:54.144Z,1.10
2022-12-31T21:56:44.139Z,0.20
2022-12-31T21:59:24.178Z,0.20
2022-12-31T22:01:54.172Z,0.20
2022-12-31T22:04:43.117Z,1.40
2022-12-31T22:06:44.125Z,1.40
2022-12-31T22:09:14.239Z,1.40
2022-12-31T22:11:44.193Z,1.40
2022-12-31T22:14:14.126Z,0.10
2022-12-31T22:16:44.371Z,0.10
2022-12-31T22:19:14.272Z,0.10
2022-12-31T22:21:44.144Z,0.10
2022-12-31T22:24:14.461Z,0.20
2022-12-31T22:26:46.611Z,0.20
2022-12-31T22:29:14.220Z,0.20
2022-12-31T22:31:44.246Z,0.20
2022-12-31T22:34:14.477Z,0.30
2022-12-31T22:36:44.412Z,0.30
2022-12-31T22:39:44.193Z,0.30
2022-12-31T22:41:45.505Z,0.30
2022-12-31T22:44:15.677Z,0.10
2022-12-31T22:46:44.704Z,0.10
2022-12-31T22:49:16.133Z,0.10
2022-12-31T22:51:56.737Z,0.10
2022-12-31T22:56:44.502Z,0.20
2022-12-31T22:59:14.255Z,0.20
2022-12-31T23:01:44.517Z,0.20
2022-12-31T23:04:14.483Z,2.10
2022-12-31T23:06:44.157Z,2.10
2022-12-31T23:09:25.794Z,2.10
2022-12-31T23:11:44.158Z,2.10
2022-12-31T23:14:26.372Z,2.80
2022-12-31T23:16:54.403Z,2.80
2022-12-31T23:19:25.037Z,2.80
2022-12-31T23:21:54.284Z,2.80
2022-12-31T23:24:21.378Z,5.00
2022-12-31T23:26:44.566Z,5.00
2022-12-31T23:31:44.205Z,5.00
2022-12-31T23:36:44.524Z,11.80
2022-12-31T23:39:14.261Z,11.80
2022-12-31T23:41:44.373Z,11.80
2022-12-31T23:44:14.280Z,4.40
2022-12-31T23:46:44.707Z,4.40
2022-12-31T23:49:14.173Z,4.40
2022-12-31T23:51:45.138Z,4.40
2022-12-31T23:54:14.896Z,0.80
2022-12-31T23:56:44.186Z,0.80
2022-12-31T23:59:14.661Z,0.80
